createdAt,value
2022-10-04T00:01:00.404Z,13.50
2022-10-04T00:03:31.364Z,13.50
2022-10-04T00:06:01.637Z,13.50
2022-10-04T00:08:37.024Z,13.40
2022-10-04T00:11:08.686Z,13.40
2022-10-04T00:13:38.830Z,13.40
2022-10-04T00:16:07.405Z,13.40
2022-10-04T00:18:41.186Z,13.40
2022-10-04T00:21:09.904Z,13.40
2022-10-04T00:23:49.180Z,13.50
2022-10-04T00:26:50.517Z,13.40
2022-10-04T00:29:35.706Z,13.40
2022-10-04T00:32:27.384Z,13.40
2022-10-04T00:34:56.046Z,13.40
2022-10-04T00:37:25.393Z,13.40
2022-10-04T00:40:12.949Z,13.40
2022-10-04T00:42:53.546Z,13.40
2022-10-04T00:45:36.058Z,13.40
2022-10-04T00:48:45.134Z,13.40
2022-10-04T00:51:23.868Z,13.40
2022-10-04T00:53:59.816Z,13.30
2022-10-04T00:56:35.659Z,13.30
2022-10-04T00:59:23.101Z,13.30
2022-10-04T01:01:55.681Z,13.30
2022-10-04T01:04:32.617Z,13.20
2022-10-04T01:07:03.118Z,13.20
2022-10-04T01:09:34.692Z,13.20
2022-10-04T01:12:11.795Z,13.20
2022-10-04T01:14:51.843Z,13.10
2022-10-04T01:17:19.911Z,13.10
2022-10-04T01:19:53.093Z,13.10
2022-10-04T01:22:44.616Z,13.10
2022-10-04T01:25:32.666Z,13.00
2022-10-04T01:28:00.883Z,13.00
2022-10-04T01:30:28.833Z,13.00
2022-10-04T01:32:56.682Z,13.00
2022-10-04T01:35:24.887Z,12.90
2022-10-04T01:37:55.227Z,12.90
2022-10-04T01:40:23.197Z,12.80
2022-10-04T01:42:56.277Z,12.80
2022-10-04T01:45:29.733Z,12.80
2022-10-04T01:48:00.886Z,12.70
2022-10-04T01:50:32.380Z,12.70
2022-10-04T01:53:12.162Z,12.70
2022-10-04T01:55:42.964Z,12.70
2022-10-04T01:58:14.519Z,12.60
2022-10-04T02:00:47.774Z,12.60
2022-10-04T02:03:19.833Z,12.60
2022-10-04T02:05:53.144Z,12.60
2022-10-04T02:08:28.585Z,12.50
2022-10-04T02:10:57.414Z,12.50
2022-10-04T02:13:30.035Z,12.50
2022-10-04T02:15:59.909Z,12.50
2022-10-04T02:18:28.949Z,12.50
2022-10-04T02:20:57.641Z,12.40
2022-10-04T02:23:27.870Z,12.40
2022-10-04T02:25:56.098Z,12.40
2022-10-04T02:28:23.973Z,12.40
2022-10-04T02:31:11.880Z,12.40
2022-10-04T02:33:43.060Z,12.40
2022-10-04T02:36:11.883Z,12.40
2022-10-04T02:38:48.932Z,12.40
2022-10-04T02:41:23.914Z,12.40
2022-10-04T02:43:56.493Z,12.30
2022-10-04T02:46:29.248Z,12.30
2022-10-04T02:49:00.171Z,12.40
2022-10-04T02:51:33.713Z,12.30
2022-10-04T02:54:07.528Z,12.30
2022-10-04T02:56:36.094Z,12.30
2022-10-04T02:59:05.505Z,12.20
2022-10-04T03:01:44.923Z,12.20
2022-10-04T03:04:15.824Z,12.20
2022-10-04T03:06:45.881Z,12.10
2022-10-04T03:09:16.130Z,12.10
2022-10-04T03:11:44.615Z,12.10
2022-10-04T03:14:17.054Z,12.10
2022-10-04T03:16:46.644Z,12.10
2022-10-04T03:19:17.632Z,12.00
2022-10-04T03:21:49.002Z,12.00
2022-10-04T03:24:22.543Z,12.00
2022-10-04T03:26:53.584Z,12.00
2022-10-04T03:29:24.692Z,12.00
2022-10-04T03:31:57.572Z,11.90
2022-10-04T03:34:28.538Z,11.90
2022-10-04T03:36:59.085Z,11.90
2022-10-04T03:39:33.817Z,11.90
2022-10-04T03:42:06.488Z,11.80
2022-10-04T03:44:35.328Z,11.80
2022-10-04T03:47:08.169Z,11.80
2022-10-04T03:49:38.521Z,11.80
2022-10-04T03:52:08.322Z,11.80
2022-10-04T03:54:37.772Z,11.80
2022-10-04T03:57:07.726Z,11.70
2022-10-04T03:59:37.454Z,11.70
2022-10-04T04:02:11.748Z,11.70
2022-10-04T04:04:50.600Z,11.70
2022-10-04T04:07:24.529Z,11.70
2022-10-04T04:09:59.630Z,11.70
2022-10-04T04:12:36.297Z,11.70
2022-10-04T04:15:07.129Z,11.60
2022-10-04T04:17:41.721Z,11.60
2022-10-04T04:20:22.921Z,11.60
2022-10-04T04:22:59.488Z,11.60
2022-10-04T04:25:32.055Z,11.60
2022-10-04T04:28:06.098Z,11.60
2022-10-04T04:30:38.146Z,11.60
2022-10-04T04:33:20.356Z,11.60
2022-10-04T04:35:49.232Z,11.60
2022-10-04T04:38:22.409Z,11.60
2022-10-04T04:40:55.497Z,11.50
2022-10-04T04:43:27.572Z,11.50
2022-10-04T04:46:22.337Z,11.50
2022-10-04T04:48:48.371Z,11.50
2022-10-04T04:51:21.580Z,11.40
2022-10-04T04:53:51.083Z,11.40
2022-10-04T04:56:23.263Z,11.40
2022-10-04T04:58:53.643Z,11.40
2022-10-04T05:01:26.736Z,11.40
2022-10-04T05:04:05.890Z,11.40
2022-10-04T05:06:36.064Z,11.40
2022-10-04T05:09:05.342Z,11.40
2022-10-04T05:11:37.189Z,11.40
2022-10-04T05:14:08.565Z,11.40
2022-10-04T05:16:43.194Z,11.30
2022-10-04T05:19:17.267Z,11.40
2022-10-04T05:21:47.786Z,11.40
2022-10-04T05:24:23.137Z,11.40
2022-10-04T05:26:56.654Z,11.40
2022-10-04T05:29:27.359Z,11.30
2022-10-04T05:32:04.345Z,11.30
2022-10-04T05:34:37.065Z,11.30
2022-10-04T05:37:23.664Z,11.30
2022-10-04T05:40:01.446Z,11.30
2022-10-04T05:42:38.778Z,11.30
2022-10-04T05:45:17.482Z,11.30
2022-10-04T05:47:47.423Z,11.30
2022-10-04T05:50:20.567Z,11.30
2022-10-04T05:52:52.213Z,11.20
2022-10-04T05:55:28.778Z,11.20
2022-10-04T05:58:25.355Z,11.20
2022-10-04T06:01:16.363Z,11.20
2022-10-04T06:04:16.559Z,11.20
2022-10-04T06:06:50.534Z,11.20
2022-10-04T06:09:38.118Z,11.20
2022-10-04T06:12:12.320Z,11.20
2022-10-04T06:15:09.413Z,11.20
2022-10-04T06:17:52.088Z,11.20
2022-10-04T06:20:46.686Z,11.20
2022-10-04T06:23:16.548Z,11.10
2022-10-04T06:25:48.586Z,11.10
2022-10-04T06:28:20.256Z,11.10
2022-10-04T06:31:09.763Z,11.10
2022-10-04T06:33:52.726Z,11.20
2022-10-04T06:36:47.151Z,11.10
2022-10-04T06:39:49.260Z,11.20
2022-10-04T06:42:35.206Z,11.20
2022-10-04T06:45:29.448Z,11.10
2022-10-04T06:48:22.866Z,11.20
2022-10-04T06:50:53.666Z,11.20
2022-10-04T06:53:27.582Z,11.20
2022-10-04T06:56:07.259Z,11.30
2022-10-04T06:59:07.657Z,11.40
2022-10-04T07:01:37.234Z,11.30
2022-10-04T07:04:22.074Z,11.30
2022-10-04T07:07:16.474Z,11.30
2022-10-04T07:09:46.897Z,11.40
2022-10-04T07:12:17.618Z,11.40
2022-10-04T07:14:50.223Z,11.50
2022-10-04T07:17:25.138Z,11.60
2022-10-04T07:19:55.711Z,11.70
2022-10-04T07:22:31.042Z,11.80
2022-10-04T07:25:08.817Z,11.90
2022-10-04T07:27:48.455Z,12.00
2022-10-04T07:30:18.021Z,12.20
2022-10-04T07:32:47.496Z,12.30
2022-10-04T07:35:30.432Z,12.40
2022-10-04T07:38:07.122Z,12.50
2022-10-04T07:40:39.770Z,12.50
2022-10-04T07:43:13.346Z,12.60
2022-10-04T07:45:43.243Z,12.70
2022-10-04T07:48:16.349Z,12.70
2022-10-04T07:50:57.405Z,12.80
2022-10-04T07:53:31.867Z,12.80
2022-10-04T07:56:08.133Z,12.90
2022-10-04T07:58:46.217Z,13.00
2022-10-04T08:01:26.118Z,13.10
2022-10-04T08:04:04.419Z,13.20
2022-10-04T08:06:37.126Z,13.30
2022-10-04T08:09:21.109Z,13.40
2022-10-04T08:11:58.989Z,13.50
2022-10-04T08:14:38.246Z,13.60
2022-10-04T08:17:20.268Z,13.60
2022-10-04T08:20:00.917Z,13.70
2022-10-04T08:22:53.359Z,13.80
2022-10-04T08:25:28.450Z,13.80
2022-10-04T08:28:21.706Z,13.80
2022-10-04T08:31:12.105Z,13.70
2022-10-04T08:33:56.875Z,13.70
2022-10-04T08:36:41.029Z,13.80
2022-10-04T08:39:27.535Z,13.80
2022-10-04T08:42:41.882Z,13.90
2022-10-04T08:45:38.989Z,13.90
2022-10-04T08:48:39.108Z,13.90
2022-10-04T08:51:45.565Z,14.00
2022-10-04T08:54:42.718Z,14.00
2022-10-04T08:57:36.164Z,14.00
2022-10-04T09:00:15.267Z,14.10
2022-10-04T09:03:36.712Z,14.10
2022-10-04T09:06:27.026Z,14.10
2022-10-04T09:09:21.869Z,14.10
2022-10-04T09:12:26.812Z,14.00
2022-10-04T09:15:18.772Z,14.00
2022-10-04T09:17:55.158Z,14.10
2022-10-04T09:20:38.734Z,14.10
2022-10-04T09:23:20.691Z,14.10
2022-10-04T09:25:56.464Z,14.10
2022-10-04T09:28:47.077Z,14.10
2022-10-04T09:31:41.268Z,14.20
2022-10-04T09:34:27.808Z,14.20
2022-10-04T09:37:28.626Z,14.20
2022-10-04T09:40:20.238Z,14.30
2022-10-04T09:43:07.370Z,14.30
2022-10-04T09:45:59.461Z,14.50
2022-10-04T09:48:33.840Z,14.40
2022-10-04T09:51:40.867Z,14.50
2022-10-04T09:54:48.756Z,14.60
2022-10-04T09:57:40.801Z,14.60
2022-10-04T10:00:23.310Z,14.70
2022-10-04T10:03:17.489Z,14.80
2022-10-04T10:05:59.671Z,14.80
2022-10-04T10:08:36.842Z,14.90
2022-10-04T10:11:31.762Z,15.00
2022-10-04T10:14:26.915Z,15.00
2022-10-04T10:17:02.538Z,15.00
2022-10-04T10:19:50.294Z,15.00
2022-10-04T10:22:34.882Z,15.10
2022-10-04T10:25:22.557Z,15.10
2022-10-04T10:28:05.938Z,15.20
2022-10-04T10:30:49.062Z,15.20
2022-10-04T10:33:32.959Z,15.30
2022-10-04T10:36:25.921Z,15.40
2022-10-04T10:39:11.976Z,15.40
2022-10-04T10:41:56.820Z,15.40
2022-10-04T10:44:43.451Z,15.50
2022-10-04T10:47:29.440Z,15.60
2022-10-04T10:50:08.787Z,15.60
2022-10-04T10:53:06.016Z,15.60
2022-10-04T10:55:59.005Z,15.70
2022-10-04T10:59:13.154Z,15.80
2022-10-04T11:02:05.841Z,15.90
2022-10-04T11:04:54.718Z,16.10
2022-10-04T11:07:44.699Z,16.40
2022-10-04T11:10:32.282Z,16.50
2022-10-04T11:13:30.149Z,16.40
2022-10-04T11:16:36.473Z,16.50
2022-10-04T11:19:46.476Z,16.70
2022-10-04T11:22:44.704Z,16.70
2022-10-04T11:25:40.160Z,16.90
2022-10-04T11:28:16.959Z,17.00
2022-10-04T11:31:27.256Z,17.20
2022-10-04T11:34:18.424Z,17.30
2022-10-04T11:37:02.794Z,17.30
2022-10-04T11:39:56.125Z,17.40
2022-10-04T11:42:40.713Z,17.40
2022-10-04T11:45:48.550Z,17.40
2022-10-04T11:48:33.310Z,17.40
2022-10-04T11:51:29.180Z,17.40
2022-10-04T11:54:30.168Z,17.40
2022-10-04T11:57:16.861Z,17.40
2022-10-04T11:59:57.335Z,17.30
2022-10-04T12:02:47.156Z,17.30
2022-10-04T12:05:51.028Z,17.30
2022-10-04T12:08:32.834Z,17.20
2022-10-04T12:11:52.705Z,17.20
2022-10-04T12:14:30.164Z,17.20
2022-10-04T12:17:29.192Z,17.20
2022-10-04T12:20:16.474Z,17.20
2022-10-04T12:23:14.141Z,17.20
2022-10-04T12:25:53.649Z,17.20
2022-10-04T12:28:55.837Z,17.10
2022-10-04T12:31:28.330Z,17.10
2022-10-04T12:34:06.118Z,17.10
2022-10-04T12:36:54.194Z,17.20
2022-10-04T12:39:44.009Z,17.20
2022-10-04T12:42:21.988Z,17.20
2022-10-04T12:45:20.072Z,17.20
2022-10-04T12:48:03.120Z,17.20
2022-10-04T12:50:46.434Z,17.20
2022-10-04T12:53:23.064Z,17.20
2022-10-04T12:56:06.329Z,17.20
2022-10-04T12:58:59.692Z,17.20
2022-10-04T13:01:36.837Z,17.20
2022-10-04T13:04:20.714Z,17.20
2022-10-04T13:07:02.648Z,17.30
2022-10-04T13:09:59.792Z,17.30
2022-10-04T13:12:41.904Z,17.30
2022-10-04T13:15:25.197Z,17.30
2022-10-04T13:18:03.830Z,17.30
2022-10-04T13:20:51.041Z,17.30
2022-10-04T13:23:31.924Z,17.30
2022-10-04T13:26:34.022Z,17.30
2022-10-04T13:29:08.758Z,17.50
2022-10-04T13:31:41.810Z,17.50
2022-10-04T13:34:21.118Z,17.50
2022-10-04T13:37:01.764Z,17.60
2022-10-04T13:39:48.885Z,17.60
2022-10-04T13:42:42.880Z,17.70
2022-10-04T13:45:24.186Z,17.70
2022-10-04T13:48:18.193Z,17.80
2022-10-04T13:51:09.340Z,17.80
2022-10-04T13:54:04.702Z,17.90
2022-10-04T13:56:54.768Z,17.90
2022-10-04T13:59:34.612Z,18.00
2022-10-04T14:02:28.675Z,18.10
2022-10-04T14:05:35.191Z,18.00
2022-10-04T14:08:45.179Z,18.00
2022-10-04T14:11:44.432Z,18.10
2022-10-04T14:14:39.172Z,18.10
2022-10-04T14:17:42.941Z,18.10
2022-10-04T14:20:49.558Z,18.10
2022-10-04T14:23:59.050Z,17.90
2022-10-04T14:26:52.249Z,18.10
2022-10-04T14:29:50.304Z,18.10
2022-10-04T14:32:47.310Z,18.10
2022-10-04T14:35:19.032Z,18.10
2022-10-04T14:38:29.168Z,18.10
2022-10-04T14:41:22.873Z,18.20
2022-10-04T14:44:19.382Z,18.20
2022-10-04T14:46:57.359Z,18.10
2022-10-04T14:49:47.154Z,18.10
2022-10-04T14:52:33.513Z,18.10
2022-10-04T14:55:23.968Z,18.10
2022-10-04T14:58:06.094Z,18.10
2022-10-04T15:00:57.154Z,18.10
2022-10-04T15:03:40.682Z,18.10
2022-10-04T15:06:36.686Z,18.10
2022-10-04T15:09:28.121Z,18.10
2022-10-04T15:12:29.601Z,18.10
2022-10-04T15:15:20.859Z,18.10
2022-10-04T15:18:02.062Z,18.10
2022-10-04T15:20:34.772Z,18.10
2022-10-04T15:23:15.879Z,18.10
2022-10-04T15:25:46.166Z,18.10
2022-10-04T15:28:33.726Z,18.10
2022-10-04T15:31:07.002Z,18.10
2022-10-04T15:33:42.257Z,18.20
2022-10-04T15:36:27.889Z,18.10
2022-10-04T15:39:04.855Z,18.10
2022-10-04T15:41:42.883Z,18.10
2022-10-04T15:44:47.560Z,18.10
2022-10-04T15:47:22.439Z,18.10
2022-10-04T15:50:01.615Z,18.10
2022-10-04T15:52:57.970Z,18.10
2022-10-04T15:56:06.181Z,18.00
2022-10-04T15:58:53.092Z,18.10
2022-10-04T16:01:38.952Z,17.90
2022-10-04T16:04:33.256Z,17.90
2022-10-04T16:07:12.913Z,17.90
2022-10-04T16:09:47.495Z,18.10
2022-10-04T16:12:27.769Z,18.00
2022-10-04T16:15:00.507Z,18.00
2022-10-04T16:18:00.218Z,17.90
2022-10-04T16:20:55.208Z,17.90
2022-10-04T16:23:34.686Z,17.80
2022-10-04T16:26:05.692Z,17.80
2022-10-04T16:29:00.989Z,17.80
2022-10-04T16:31:51.587Z,17.70
2022-10-04T16:34:48.828Z,17.70
2022-10-04T16:37:26.583Z,17.70
2022-10-04T16:40:00.585Z,17.60
2022-10-04T16:42:34.882Z,17.60
2022-10-04T16:45:33.740Z,17.60
2022-10-04T16:48:07.399Z,17.60
2022-10-04T16:51:06.046Z,17.50
2022-10-04T16:53:44.737Z,17.50
2022-10-04T16:56:15.366Z,17.50
2022-10-04T16:58:52.557Z,17.50
2022-10-04T17:02:14.017Z,17.50
2022-10-04T17:05:02.626Z,17.50
2022-10-04T17:08:08.086Z,17.40
2022-10-04T17:10:41.692Z,17.40
2022-10-04T17:13:24.252Z,17.40
2022-10-04T17:16:02.520Z,17.40
2022-10-04T17:18:44.733Z,17.40
2022-10-04T17:21:26.876Z,17.40
2022-10-04T17:24:13.003Z,17.30
2022-10-04T17:27:04.683Z,17.40
2022-10-04T17:29:44.938Z,17.30
2022-10-04T17:32:25.715Z,17.30
2022-10-04T17:35:09.105Z,17.30
2022-10-04T17:37:46.299Z,17.30
2022-10-04T17:40:39.059Z,17.30
2022-10-04T17:43:18.091Z,17.30
2022-10-04T17:46:00.630Z,17.30
2022-10-04T17:48:48.873Z,17.40
2022-10-04T17:51:57.485Z,17.40
2022-10-04T17:54:47.417Z,17.40
2022-10-04T17:57:22.683Z,17.30
2022-10-04T17:59:55.951Z,17.30
2022-10-04T18:02:29.054Z,17.20
2022-10-04T18:04:59.340Z,17.20
2022-10-04T18:07:35.377Z,17.30
2022-10-04T18:10:21.109Z,17.30
2022-10-04T18:12:58.549Z,17.30
2022-10-04T18:15:32.204Z,17.20
2022-10-04T18:18:18.630Z,17.20
2022-10-04T18:21:05.084Z,17.20
2022-10-04T18:23:39.357Z,17.20
2022-10-04T18:26:12.817Z,17.20
2022-10-04T18:28:40.794Z,17.20
2022-10-04T18:31:23.903Z,17.20
2022-10-04T18:33:54.156Z,17.20
2022-10-04T18:36:24.651Z,17.20
2022-10-04T18:39:19.841Z,17.20
2022-10-04T18:41:58.903Z,17.20
2022-10-04T18:44:30.201Z,17.20
2022-10-04T18:47:00.462Z,17.10
2022-10-04T18:49:30.976Z,17.00
2022-10-04T18:52:13.282Z,17.10
2022-10-04T18:54:50.476Z,17.10
2022-10-04T18:57:31.326Z,17.10
2022-10-04T19:00:23.928Z,17.10
2022-10-04T19:03:02.450Z,17.10
2022-10-04T19:05:40.777Z,17.10
2022-10-04T19:08:20.207Z,17.10
2022-10-04T19:10:52.981Z,17.10
2022-10-04T19:13:30.373Z,17.10
2022-10-04T19:16:15.478Z,17.10
2022-10-04T19:18:59.126Z,17.10
2022-10-04T19:21:35.058Z,17.10
2022-10-04T19:24:32.758Z,17.10
2022-10-04T19:27:05.773Z,17.10
2022-10-04T19:29:50.870Z,17.10
2022-10-04T19:32:29.656Z,17.10
2022-10-04T19:35:03.913Z,17.00
2022-10-04T19:37:38.459Z,17.00
2022-10-04T19:40:16.691Z,17.00
2022-10-04T19:42:54.576Z,17.00
2022-10-04T19:45:33.350Z,17.00
2022-10-04T19:48:07.150Z,17.00
2022-10-04T19:50:40.667Z,17.00
2022-10-04T19:53:17.013Z,17.00
2022-10-04T19:55:52.487Z,17.00
2022-10-04T19:58:34.986Z,17.00
2022-10-04T20:01:02.919Z,17.00
2022-10-04T20:03:30.776Z,17.00
2022-10-04T20:06:03.987Z,17.00
2022-10-04T20:08:54.024Z,17.00
2022-10-04T20:11:27.689Z,17.00
2022-10-04T20:14:28.034Z,16.90
2022-10-04T20:17:06.650Z,17.00
2022-10-04T20:19:43.191Z,16.90
2022-10-04T20:22:52.098Z,16.90
2022-10-04T20:25:53.369Z,16.90
2022-10-04T20:28:40.353Z,16.80
2022-10-04T20:31:10.031Z,16.80
2022-10-04T20:33:52.058Z,16.80
2022-10-04T20:36:52.010Z,16.80
2022-10-04T20:39:57.009Z,16.80
2022-10-04T20:42:36.014Z,16.90
2022-10-04T20:45:20.832Z,16.80
2022-10-04T20:47:50.601Z,16.80
2022-10-04T20:50:30.138Z,16.80
2022-10-04T20:53:00.771Z,16.90
2022-10-04T20:55:30.649Z,16.80
2022-10-04T20:58:01.668Z,16.70
2022-10-04T21:00:33.794Z,16.80
2022-10-04T21:03:16.207Z,16.80
2022-10-04T21:05:49.929Z,16.80
2022-10-04T21:08:25.569Z,16.80
2022-10-04T21:11:07.538Z,16.80
2022-10-04T21:13:49.872Z,16.80
2022-10-04T21:16:51.980Z,16.80
2022-10-04T21:19:47.133Z,16.70
2022-10-04T21:22:50.962Z,16.70
2022-10-04T21:25:41.759Z,16.70
2022-10-04T21:28:32.734Z,16.70
2022-10-04T21:31:01.940Z,16.70
2022-10-04T21:33:31.681Z,16.70
2022-10-04T21:35:59.464Z,16.60
2022-10-04T21:38:28.789Z,16.60
2022-10-04T21:40:57.003Z,16.60
2022-10-04T21:43:25.741Z,16.60
2022-10-04T21:45:53.683Z,16.60
2022-10-04T21:48:23.131Z,16.70
2022-10-04T21:50:52.384Z,16.60
2022-10-04T21:53:20.620Z,16.60
2022-10-04T21:55:49.962Z,16.60
2022-10-04T21:58:17.776Z,16.60
2022-10-04T22:00:46.180Z,16.60
2022-10-04T22:03:14.020Z,16.60
2022-10-04T22:05:41.824Z,16.60
2022-10-04T22:08:09.730Z,16.60
2022-10-04T22:10:37.641Z,16.60
2022-10-04T22:13:06.733Z,16.60
2022-10-04T22:15:34.661Z,16.60
2022-10-04T22:18:02.473Z,16.60
2022-10-04T22:20:30.644Z,16.60
2022-10-04T22:22:59.734Z,16.60
2022-10-04T22:25:28.760Z,16.60
2022-10-04T22:27:56.653Z,16.60
2022-10-04T22:30:28.285Z,16.60
2022-10-04T22:32:57.123Z,16.60
2022-10-04T22:35:25.497Z,16.60
2022-10-04T22:37:54.436Z,16.60
2022-10-04T22:40:24.507Z,16.50
2022-10-04T22:42:53.924Z,16.50
2022-10-04T22:45:24.513Z,16.50
2022-10-04T22:47:54.429Z,16.50
2022-10-04T22:50:30.698Z,16.50
2022-10-04T22:53:00.563Z,16.50
2022-10-04T22:55:28.324Z,16.50
2022-10-04T22:57:56.479Z,16.50
2022-10-04T23:00:24.404Z,16.50
2022-10-04T23:02:53.515Z,16.50
2022-10-04T23:05:22.208Z,16.50
2022-10-04T23:07:50.506Z,16.50
2022-10-04T23:10:20.429Z,16.50
2022-10-04T23:12:50.701Z,16.50
2022-10-04T23:15:20.042Z,16.50
2022-10-04T23:17:56.361Z,16.50
2022-10-04T23:20:24.812Z,16.50
2022-10-04T23:22:55.016Z,16.50
2022-10-04T23:25:29.585Z,16.50
2022-10-04T23:28:01.835Z,16.60
2022-10-04T23:30:29.815Z,16.50
2022-10-04T23:33:01.958Z,16.50
2022-10-04T23:35:33.283Z,16.50
2022-10-04T23:38:06.978Z,16.50
2022-10-04T23:40:35.013Z,16.30
2022-10-04T23:43:05.337Z,16.40
2022-10-04T23:45:35.266Z,16.40
2022-10-04T23:48:06.940Z,16.40
2022-10-04T23:50:37.451Z,16.40
2022-10-04T23:53:07.385Z,16.40
2022-10-04T23:55:38.338Z,16.40
2022-10-04T23:58:13.613Z,16.40
